sensor_id;sensor_type;location;lat;lon;timestamp;temperature;humidity
40153;DHT22;26371;56.992;23.912;2023-07-13T02:17:39;17.80;99.90
40153;DHT22;26371;56.992;23.912;2023-07-13T02:20:08;17.70;99.90
40153;DHT22;26371;56.992;23.912;2023-07-13T02:22:37;17.60;99.90
40153;DHT22;26371;56.992;23.912;2023-07-13T02:25:05;17.50;99.90
40153;DHT22;26371;56.992;23.912;2023-07-13T02:27:34;17.40;99.90
40153;DHT22;26371;56.992;23.912;2023-07-13T02:30:02;17.40;99.90
40153;DHT22;26371;56.992;23.912;2023-07-13T02:32:31;17.30;99.90
40153;DHT22;26371;56.992;23.912;2023-07-13T02:35:02;17.30;99.90
40153;DHT22;26371;56.992;23.912;2023-07-13T02:37:30;17.30;99.90
40153;DHT22;26371;56.992;23.912;2023-07-13T02:39:59;17.30;99.90
40153;DHT22;26371;56.992;23.912;2023-07-13T02:42:29;17.20;99.90
40153;DHT22;26371;56.992;23.912;2023-07-13T02:44:57;17.20;99.90
40153;DHT22;26371;56.992;23.912;2023-07-13T02:47:25;17.30;99.90
40153;DHT22;26371;56.992;23.912;2023-07-13T02:49:54;17.30;99.90
40153;DHT22;26371;56.992;23.912;2023-07-13T02:52:24;17.30;99.90
40153;DHT22;26371;56.992;23.912;2023-07-13T02:54:53;17.30;99.90
40153;DHT22;26371;56.992;23.912;2023-07-13T02:57:21;17.30;99.90
40153;DHT22;26371;56.992;23.912;2023-07-13T02:59:49;17.30;99.90
40153;DHT22;26371;56.992;23.912;2023-07-13T03:02:18;17.30;99.90
40153;DHT22;26371;56.992;23.912;2023-07-13T03:04:47;17.30;99.90
40153;DHT22;26371;56.992;23.912;2023-07-13T03:07:16;17.40;99.90
40153;DHT22;26371;56.992;23.912;2023-07-13T03:09:48;17.40;99.90
40153;DHT22;26371;56.992;23.912;2023-07-13T03:12:18;17.50;99.90
40153;DHT22;26371;56.992;23.912;2023-07-13T03:14:49;17.50;99.90
40153;DHT22;26371;56.992;23.912;2023-07-13T03:17:23;17.50;99.90
40153;DHT22;26371;56.992;23.912;2023-07-13T03:19:52;17.50;99.90
40153;DHT22;26371;56.992;23.912;2023-07-13T03:22:22;17.50;99.90
40153;DHT22;26371;56.992;23.912;2023-07-13T03:24:54;17.50;99.90
40153;DHT22;26371;56.992;23.912;2023-07-13T03:27:22;17.50;99.90
40153;DHT22;26371;56.992;23.912;2023-07-13T03:29:51;17.50;99.90
40153;DHT22;26371;56.992;23.912;2023-07-13T03:32:20;17.50;99.90
40153;DHT22;26371;56.992;23.912;2023-07-13T03:34:48;17.50;99.90
40153;DHT22;26371;56.992;23.912;2023-07-13T03:37:17;17.60;99.90
40153;DHT22;26371;56.992;23.912;2023-07-13T03:39:46;17.50;99.90
40153;DHT22;26371;56.992;23.912;2023-07-13T03:42:17;17.50;99.90
40153;DHT22;26371;56.992;23.912;2023-07-13T03:44:46;17.50;99.90
40153;DHT22;26371;56.992;23.912;2023-07-13T03:47:19;17.60;99.90
40153;DHT22;26371;56.992;23.912;2023-07-13T03:49:48;17.60;99.90
40153;DHT22;26371;56.992;23.912;2023-07-13T03:52:16;17.60;99.90
40153;DHT22;26371;56.992;23.912;2023-07-13T03:54:44;17.60;99.90
40153;DHT22;26371;56.992;23.912;2023-07-13T03:57:13;17.60;99.90
40153;DHT22;26371;56.992;23.912;2023-07-13T03:59:43;17.70;99.90
40153;DHT22;26371;56.992;23.912;2023-07-13T04:02:11;17.70;99.90
40153;DHT22;26371;56.992;23.912;2023-07-13T04:04:40;17.70;99.90
40153;DHT22;26371;56.992;23.912;2023-07-13T04:07:08;17.70;99.90
40153;DHT22;26371;56.992;23.912;2023-07-13T04:09:39;17.80;99.90
40153;DHT22;26371;56.992;23.912;2023-07-13T04:12:09;17.90;99.90
40153;DHT22;26371;56.992;23.912;2023-07-13T04:14:38;17.90;99.90
40153;DHT22;26371;56.992;23.912;2023-07-13T04:17:08;18.00;99.90
40153;DHT22;26371;56.992;23.912;2023-07-13T04:19:36;18.00;99.90
40153;DHT22;26371;56.992;23.912;2023-07-13T04:22:05;18.10;99.90
40153;DHT22;26371;56.992;23.912;2023-07-13T04:24:33;18.20;99.90
40153;DHT22;26371;56.992;23.912;2023-07-13T04:27:02;18.20;99.90
40153;DHT22;26371;56.992;23.912;2023-07-13T04:29:30;18.20;99.90
40153;DHT22;26371;56.992;23.912;2023-07-13T04:31:58;18.30;99.90
40153;DHT22;26371;56.992;23.912;2023-07-13T04:34:28;18.30;99.90
40153;DHT22;26371;56.992;23.912;2023-07-13T04:36:57;18.40;99.90
40153;DHT22;26371;56.992;23.912;2023-07-13T04:39:25;18.40;99.90
40153;DHT22;26371;56.992;23.912;2023-07-13T04:41:53;18.40;99.90
40153;DHT22;26371;56.992;23.912;2023-07-13T04:44:22;18.50;99.90
40153;DHT22;26371;56.992;23.912;2023-07-13T04:46:51;18.40;99.90
40153;DHT22;26371;56.992;23.912;2023-07-13T04:49:19;18.50;99.90
40153;DHT22;26371;56.992;23.912;2023-07-13T04:51:49;18.50;99.90
40153;DHT22;26371;56.992;23.912;2023-07-13T04:54:17;18.50;99.90
40153;DHT22;26371;56.992;23.912;2023-07-13T04:56:46;18.50;99.90
40153;DHT22;26371;56.992;23.912;2023-07-13T04:59:14;18.60;99.90
40153;DHT22;26371;56.992;23.912;2023-07-13T05:01:43;18.60;99.90
40153;DHT22;26371;56.992;23.912;2023-07-13T05:04:11;18.60;99.90
40153;DHT22;26371;56.992;23.912;2023-07-13T05:06:39;18.70;99.90
40153;DHT22;26371;56.992;23.912;2023-07-13T05:09:09;18.80;99.90
40153;DHT22;26371;56.992;23.912;2023-07-13T05:11:39;19.00;99.90
40153;DHT22;26371;56.992;23.912;2023-07-13T05:14:08;19.00;99.90
40153;DHT22;26371;56.992;23.912;2023-07-13T05:24:02;19.30;99.90
40153;DHT22;26371;56.992;23.912;2023-07-13T05:26:50;19.60;99.90
40153;DHT22;26371;56.992;23.912;2023-07-13T05:29:19;19.60;99.90
40153;DHT22;26371;56.992;23.912;2023-07-13T05:31:47;19.60;99.90
40153;DHT22;26371;56.992;23.912;2023-07-13T05:34:16;19.60;99.90
40153;DHT22;26371;56.992;23.912;2023-07-13T05:36:44;19.70;99.90
40153;DHT22;26371;56.992;23.912;2023-07-13T05:39:13;19.80;99.90
40153;DHT22;26371;56.992;23.912;2023-07-13T05:41:41;19.90;99.90
40153;DHT22;26371;56.992;23.912;2023-07-13T05:44:11;19.90;99.90
40153;DHT22;26371;56.992;23.912;2023-07-13T05:46:39;19.80;99.90
40153;DHT22;26371;56.992;23.912;2023-07-13T05:49:08;19.80;99.90
40153;DHT22;26371;56.992;23.912;2023-07-13T05:51:36;19.90;99.90
40153;DHT22;26371;56.992;23.912;2023-07-13T05:54:04;20.10;99.90
40153;DHT22;26371;56.992;23.912;2023-07-13T05:56:33;20.20;99.90
40153;DHT22;26371;56.992;23.912;2023-07-13T05:59:01;20.30;99.90
40153;DHT22;26371;56.992;23.912;2023-07-13T06:01:32;20.20;99.90
40153;DHT22;26371;56.992;23.912;2023-07-13T06:04:00;20.20;99.90
40153;DHT22;26371;56.992;23.912;2023-07-13T06:06:28;20.20;99.90
40153;DHT22;26371;56.992;23.912;2023-07-13T06:08:57;20.20;99.90
40153;DHT22;26371;56.992;23.912;2023-07-13T06:11:26;20.10;99.90
40153;DHT22;26371;56.992;23.912;2023-07-13T06:13:54;20.10;99.90
40153;DHT22;26371;56.992;23.912;2023-07-13T06:16:23;20.00;99.90
40153;DHT22;26371;56.992;23.912;2023-07-13T06:18:53;20.00;99.90
40153;DHT22;26371;56.992;23.912;2023-07-13T06:21:22;20.00;99.90
40153;DHT22;26371;56.992;23.912;2023-07-13T06:23:51;20.10;99.90
40153;DHT22;26371;56.992;23.912;2023-07-13T06:26:20;20.10;99.90
40153;DHT22;26371;56.992;23.912;2023-07-13T06:28:48;20.20;99.90
40153;DHT22;26371;56.992;23.912;2023-07-13T06:31:17;20.20;99.90
40153;DHT22;26371;56.992;23.912;2023-07-13T06:33:45;20.20;99.90
40153;DHT22;26371;56.992;23.912;2023-07-13T06:36:15;20.20;99.90
40153;DHT22;26371;56.992;23.912;2023-07-13T06:38:43;20.10;99.90
40153;DHT22;26371;56.992;23.912;2023-07-13T06:41:31;20.10;99.90
40153;DHT22;26371;56.992;23.912;2023-07-13T06:44:00;20.20;99.90
40153;DHT22;26371;56.992;23.912;2023-07-13T06:46:28;20.20;99.90
40153;DHT22;26371;56.992;23.912;2023-07-13T06:48:57;20.20;99.90
40153;DHT22;26371;56.992;23.912;2023-07-13T06:51:27;20.30;99.90
40153;DHT22;26371;56.992;23.912;2023-07-13T08:38:45;22.60;99.90
40153;DHT22;26371;56.992;23.912;2023-07-13T08:41:15;22.80;99.90
40153;DHT22;26371;56.992;23.912;2023-07-13T09:13:42;23.10;99.90
40153;DHT22;26371;56.992;23.912;2023-07-13T09:16:11;23.30;99.90
40153;DHT22;26371;56.992;23.912;2023-07-13T09:18:42;23.40;99.90
40153;DHT22;26371;56.992;23.912;2023-07-13T11:57:33;23.00;99.90
40153;DHT22;26371;56.992;23.912;2023-07-13T12:00:03;23.20;99.90
40153;DHT22;26371;56.992;23.912;2023-07-13T12:02:33;22.90;99.90
40153;DHT22;26371;56.992;23.912;2023-07-13T12:05:02;22.60;99.90
40153;DHT22;26371;56.992;23.912;2023-07-13T12:07:32;22.70;99.90
40153;DHT22;26371;56.992;23.912;2023-07-13T12:10:01;23.00;99.90
40153;DHT22;26371;56.992;23.912;2023-07-13T12:12:29;22.90;99.90
40153;DHT22;26371;56.992;23.912;2023-07-13T12:15:00;22.90;99.90
40153;DHT22;26371;56.992;23.912;2023-07-13T12:17:28;22.90;99.90
40153;DHT22;26371;56.992;23.912;2023-07-13T12:19:57;22.80;99.90
40153;DHT22;26371;56.992;23.912;2023-07-13T12:22:26;22.50;99.90
40153;DHT22;26371;56.992;23.912;2023-07-13T12:24:55;22.60;99.90
40153;DHT22;26371;56.992;23.912;2023-07-13T12:27:24;22.70;99.90
40153;DHT22;26371;56.992;23.912;2023-07-13T12:29:57;22.70;99.90
40153;DHT22;26371;56.992;23.912;2023-07-13T12:32:27;22.70;99.90
40153;DHT22;26371;56.992;23.912;2023-07-13T12:35:04;22.80;99.90
40153;DHT22;26371;56.992;23.912;2023-07-13T12:37:36;22.70;99.90
40153;DHT22;26371;56.992;23.912;2023-07-13T12:40:04;22.60;99.90
40153;DHT22;26371;56.992;23.912;2023-07-13T12:42:36;22.50;99.90
40153;DHT22;26371;56.992;23.912;2023-07-13T16:14:40;21.60;99.90
40153;DHT22;26371;56.992;23.912;2023-07-13T16:17:09;21.60;99.90
40153;DHT22;26371;56.992;23.912;2023-07-13T17:36:46;20.30;99.90
40153;DHT22;26371;56.992;23.912;2023-07-13T17:39:17;20.40;99.90
40153;DHT22;26371;56.992;23.912;2023-07-13T17:41:46;20.30;99.90
40153;DHT22;26371;56.992;23.912;2023-07-13T17:44:16;20.30;99.90
40153;DHT22;26371;56.992;23.912;2023-07-13T17:46:45;20.30;99.90
40153;DHT22;26371;56.992;23.912;2023-07-13T17:49:16;20.30;99.90
40153;DHT22;26371;56.992;23.912;2023-07-13T17:51:48;20.30;99.90
40153;DHT22;26371;56.992;23.912;2023-07-13T17:54:17;20.30;99.90
40153;DHT22;26371;56.992;23.912;2023-07-13T17:56:47;20.30;99.90
40153;DHT22;26371;56.992;23.912;2023-07-13T17:59:15;20.20;99.90
40153;DHT22;26371;56.992;23.912;2023-07-13T18:01:44;20.20;99.90
40153;DHT22;26371;56.992;23.912;2023-07-13T18:04:13;20.30;99.90
40153;DHT22;26371;56.992;23.912;2023-07-13T20:06:09;17.30;99.90
40153;DHT22;26371;56.992;23.912;2023-07-13T20:08:42;17.00;99.90
40153;DHT22;26371;56.992;23.912;2023-07-13T20:11:10;17.40;99.90
40153;DHT22;26371;56.992;23.912;2023-07-13T20:16:09;17.30;99.90
40153;DHT22;26371;56.992;23.912;2023-07-13T20:21:14;17.00;99.90
40153;DHT22;26371;56.992;23.912;2023-07-13T20:23:43;17.10;99.90
40153;DHT22;26371;56.992;23.912;2023-07-13T20:26:11;17.20;99.90
40153;DHT22;26371;56.992;23.912;2023-07-13T20:28:40;16.90;99.90
40153;DHT22;26371;56.992;23.912;2023-07-13T20:31:11;16.80;99.90
40153;DHT22;26371;56.992;23.912;2023-07-13T20:33:41;16.80;99.90
40153;DHT22;26371;56.992;23.912;2023-07-13T20:36:10;17.50;99.90
40153;DHT22;26371;56.992;23.912;2023-07-13T20:38:42;16.90;99.90
40153;DHT22;26371;56.992;23.912;2023-07-13T20:41:10;16.80;99.90
40153;DHT22;26371;56.992;23.912;2023-07-13T20:43:40;16.70;99.90
40153;DHT22;26371;56.992;23.912;2023-07-13T20:46:10;16.60;99.90
40153;DHT22;26371;56.992;23.912;2023-07-13T20:48:42;16.60;99.90
40153;DHT22;26371;56.992;23.912;2023-07-13T20:51:15;16.60;99.90
40153;DHT22;26371;56.992;23.912;2023-07-13T20:53:48;16.50;99.90
40153;DHT22;26371;56.992;23.912;2023-07-13T20:56:22;16.50;99.90
40153;DHT22;26371;56.992;23.912;2023-07-13T20:58:51;16.50;99.90
40153;DHT22;26371;56.992;23.912;2023-07-13T21:01:22;16.50;99.90
40153;DHT22;26371;56.992;23.912;2023-07-13T21:03:53;16.50;99.90
40153;DHT22;26371;56.992;23.912;2023-07-13T21:06:25;16.40;99.90
40153;DHT22;26371;56.992;23.912;2023-07-13T21:08:56;16.40;99.90
40153;DHT22;26371;56.992;23.912;2023-07-13T21:11:27;16.40;99.90
40153;DHT22;26371;56.992;23.912;2023-07-13T21:18:56;16.80;99.90
40153;DHT22;26371;56.992;23.912;2023-07-13T21:21:25;16.30;99.90
40153;DHT22;26371;56.992;23.912;2023-07-13T21:26:25;16.00;99.90
40153;DHT22;26371;56.992;23.912;2023-07-13T21:28:53;16.10;99.90
40153;DHT22;26371;56.992;23.912;2023-07-13T22:28:37;16.00;99.90
40153;DHT22;26371;56.992;23.912;2023-07-13T22:31:05;16.10;99.90
40153;DHT22;26371;56.992;23.912;2023-07-13T22:33:35;15.60;99.90
40153;DHT22;26371;56.992;23.912;2023-07-13T22:36:04;15.80;99.90
40153;DHT22;26371;56.992;23.912;2023-07-13T22:46:03;16.30;99.90
40153;DHT22;26371;56.992;23.912;2023-07-13T22:48:36;15.80;99.90
40153;DHT22;26371;56.992;23.912;2023-07-13T22:53:35;15.70;99.90
40153;DHT22;26371;56.992;23.912;2023-07-13T22:56:04;15.70;99.90
40153;DHT22;26371;56.992;23.912;2023-07-13T22:58:33;15.60;99.90
40153;DHT22;26371;56.992;23.912;2023-07-13T23:01:03;15.60;99.90
40153;DHT22;26371;56.992;23.912;2023-07-13T23:03:32;15.50;99.90
40153;DHT22;26371;56.992;23.912;2023-07-13T23:11:02;15.40;99.90
